Hauptseite
METAR-TAF:

METAR-TAF

Flughäfen :

Flughafen Sylt

Westerland, Deutschland

Breite: 54-55N, Länge: 008-21E, Höhe: 16 m

Beobachtung

Neuester Wetterbericht von vor 12 Stunden und 9 Minuten, um 15:50 UTC
Wind 20 kt aus Ost
Temperatur 5°C
Luftfeuchtigkeit 87%
Luftdruck 1018 hPa
Sichtweite: 7000 m
Leicht bewölkt in der Höhe von 1100 ft
Geschlossene Wolkendecke in der Höhe von 2200 ft
Leichtregen

METAR: EDXW 201550Z 09020KT 7000 -RA FEW011 OVC022 05/03 Q1018

Zeit: 04:59 (03:59 UTC)

Prognose

Neuester Wetterbericht von vor 13 Stunden und 59 Minuten, um 14:00 UTC
Gültige Prognose vom 20 um 15 UTC bis 20 um 18 UTC
Wind 20 kt aus Ost
Sichtweite 10 km oder mehr
Durchbrochene Bewölkung in der Höhe von 2500 ft

TAF: EDXW 201400Z 2015/2018 09020KT 9999 BKN025

Wetterbeobachtungen und Prognosen von mehr als 4000 Flughäfen (METAR und TAF Bericht).

Die verfügbaren Stationen werden durch gelbe und rote Markierungen auf der Karte dargestellt.

Führen Sie die Maus auf sie, um den Namen der Station zu sehen.

Darauf klicken, um die Beobachtung von Wetterbeobachtungen und Prognosen zu sehen.

Um die Karte zu ändern : klicken Sie auf den grünen Tasten mit einem schwarzen Kreuz Zum Vergrößern, auf den grünen Button mit einem Gedankenstrich zu verkleinern, oder auf die grünen Pfeile für benachbarte Karten.


METAR-TAF: